sensor_id;sensor_type;location;lat;lon;timestamp;pressure;altitude;pressure_sealevel;temperature;humidity
75627;BME280;67372;49.404;11.034;2023-09-07T00:01:31;98603.88;;;15.25;76.42
75627;BME280;67372;49.404;11.034;2023-09-07T00:03:57;98606.78;;;15.24;75.94
75627;BME280;67372;49.404;11.034;2023-09-07T00:06:24;98607.84;;;15.23;76.11
75627;BME280;67372;49.404;11.034;2023-09-07T00:08:50;98607.28;;;15.21;75.95
75627;BME280;67372;49.404;11.034;2023-09-07T00:11:17;98607.50;;;15.19;76.23
75627;BME280;67372;49.404;11.034;2023-09-07T00:13:43;98601.78;;;15.16;76.79
75627;BME280;67372;49.404;11.034;2023-09-07T00:16:09;98602.22;;;15.13;76.67
75627;BME280;67372;49.404;11.034;2023-09-07T00:18:36;98605.63;;;15.08;77.05
75627;BME280;67372;49.404;11.034;2023-09-07T00:21:03;98606.34;;;15.03;77.21
75627;BME280;67372;49.404;11.034;2023-09-07T00:23:29;98606.25;;;14.98;77.09
75627;BME280;67372;49.404;11.034;2023-09-07T00:25:55;98605.06;;;14.94;77.10
75627;BME280;67372;49.404;11.034;2023-09-07T00:28:22;98600.38;;;14.90;76.84
75627;BME280;67372;49.404;11.034;2023-09-07T00:30:49;98597.59;;;14.85;77.34
75627;BME280;67372;49.404;11.034;2023-09-07T00:33:15;98605.31;;;14.81;77.03
75627;BME280;67372;49.404;11.034;2023-09-07T00:35:41;98597.94;;;14.77;77.46
75627;BME280;67372;49.404;11.034;2023-09-07T00:38:08;98605.44;;;14.74;77.33
75627;BME280;67372;49.404;11.034;2023-09-07T00:40:34;98610.22;;;14.72;77.59
75627;BME280;67372;49.404;11.034;2023-09-07T00:43:01;98605.06;;;14.71;77.54
75627;BME280;67372;49.404;11.034;2023-09-07T00:45:27;98599.94;;;14.69;77.96
75627;BME280;67372;49.404;11.034;2023-09-07T00:47:53;98597.69;;;14.66;77.81
75627;BME280;67372;49.404;11.034;2023-09-07T00:50:20;98598.75;;;14.65;78.46
75627;BME280;67372;49.404;11.034;2023-09-07T00:52:47;98602.13;;;14.61;78.62
75627;BME280;67372;49.404;11.034;2023-09-07T00:55:14;98597.69;;;14.55;78.80
75627;BME280;67372;49.404;11.034;2023-09-07T00:57:41;98600.50;;;14.48;78.54
75627;BME280;67372;49.404;11.034;2023-09-07T01:00:08;98599.34;;;14.44;78.64
75627;BME280;67372;49.404;11.034;2023-09-07T01:02:35;98600.78;;;14.40;78.57
75627;BME280;67372;49.404;11.034;2023-09-07T01:05:02;98596.13;;;14.35;78.63
75627;BME280;67372;49.404;11.034;2023-09-07T01:07:38;98592.25;;;14.31;79.68
75627;BME280;67372;49.404;11.034;2023-09-07T01:10:06;98589.47;;;14.26;79.03
75627;BME280;67372;49.404;11.034;2023-09-07T01:12:34;98587.47;;;14.22;79.57
75627;BME280;67372;49.404;11.034;2023-09-07T01:15:00;98581.94;;;14.17;79.23
75627;BME280;67372;49.404;11.034;2023-09-07T01:17:27;98590.22;;;14.15;80.00
75627;BME280;67372;49.404;11.034;2023-09-07T01:19:56;98587.44;;;14.10;79.54
75627;BME280;67372;49.404;11.034;2023-09-07T01:22:23;98580.06;;;14.05;80.23
75627;BME280;67372;49.404;11.034;2023-09-07T01:24:50;98576.22;;;14.01;79.71
75627;BME280;67372;49.404;11.034;2023-09-07T01:27:17;98580.84;;;13.94;80.72
75627;BME280;67372;49.404;11.034;2023-09-07T01:29:43;98577.78;;;13.91;79.86
75627;BME280;67372;49.404;11.034;2023-09-07T01:32:09;98576.41;;;13.88;80.26
75627;BME280;67372;49.404;11.034;2023-09-07T01:34:37;98580.94;;;13.88;80.24
75627;BME280;67372;49.404;11.034;2023-09-07T01:37:07;98579.53;;;13.85;80.60
75627;BME280;67372;49.404;11.034;2023-09-07T01:39:33;98582.22;;;13.85;80.24
75627;BME280;67372;49.404;11.034;2023-09-07T01:42:00;98583.03;;;13.86;80.57
75627;BME280;67372;49.404;11.034;2023-09-07T01:44:26;98581.41;;;13.85;80.51
75627;BME280;67372;49.404;11.034;2023-09-07T01:46:52;98584.31;;;13.83;80.36
75627;BME280;67372;49.404;11.034;2023-09-07T01:49:19;98579.63;;;13.78;80.64
75627;BME280;67372;49.404;11.034;2023-09-07T01:51:45;98583.81;;;13.74;80.40
75627;BME280;67372;49.404;11.034;2023-09-07T01:54:12;98587.16;;;13.70;80.93
75627;BME280;67372;49.404;11.034;2023-09-07T01:56:38;98584.13;;;13.66;80.63
75627;BME280;67372;49.404;11.034;2023-09-07T01:59:05;98573.63;;;13.65;80.61
75627;BME280;67372;49.404;11.034;2023-09-07T02:01:31;98578.41;;;13.63;80.90
75627;BME280;67372;49.404;11.034;2023-09-07T02:03:58;98575.94;;;13.61;80.73
75627;BME280;67372;49.404;11.034;2023-09-07T02:06:24;98577.81;;;13.61;80.44
75627;BME280;67372;49.404;11.034;2023-09-07T02:08:50;98572.66;;;13.59;80.30
75627;BME280;67372;49.404;11.034;2023-09-07T02:11:17;98586.06;;;13.59;80.45
75627;BME280;67372;49.404;11.034;2023-09-07T02:13:45;98580.13;;;13.57;80.50
75627;BME280;67372;49.404;11.034;2023-09-07T02:16:12;98581.41;;;13.55;80.76
75627;BME280;67372;49.404;11.034;2023-09-07T02:18:39;98586.41;;;13.51;80.45
75627;BME280;67372;49.404;11.034;2023-09-07T02:21:05;98581.25;;;13.49;80.43
75627;BME280;67372;49.404;11.034;2023-09-07T02:23:32;98579.81;;;13.47;80.64
75627;BME280;67372;49.404;11.034;2023-09-07T02:25:59;98586.69;;;13.43;80.60
75627;BME280;67372;49.404;11.034;2023-09-07T02:28:25;98584.47;;;13.40;80.71
75627;BME280;67372;49.404;11.034;2023-09-07T02:30:52;98582.00;;;13.38;80.74
75627;BME280;67372;49.404;11.034;2023-09-07T02:33:19;98576.66;;;13.38;80.80
75627;BME280;67372;49.404;11.034;2023-09-07T02:35:47;98587.38;;;13.38;81.00
75627;BME280;67372;49.404;11.034;2023-09-07T02:38:14;98583.03;;;13.37;81.43
75627;BME280;67372;49.404;11.034;2023-09-07T02:40:41;98580.59;;;13.36;81.01
75627;BME280;67372;49.404;11.034;2023-09-07T02:43:09;98585.38;;;13.34;81.17
75627;BME280;67372;49.404;11.034;2023-09-07T02:45:35;98589.53;;;13.30;81.16
75627;BME280;67372;49.404;11.034;2023-09-07T02:48:02;98585.69;;;13.26;81.44
75627;BME280;67372;49.404;11.034;2023-09-07T02:50:31;98587.97;;;13.22;81.34
75627;BME280;67372;49.404;11.034;2023-09-07T02:52:58;98587.38;;;13.20;81.37
75627;BME280;67372;49.404;11.034;2023-09-07T02:55:25;98588.41;;;13.19;81.26
75627;BME280;67372;49.404;11.034;2023-09-07T02:57:52;98588.63;;;13.17;81.57
75627;BME280;67372;49.404;11.034;2023-09-07T03:00:18;98595.22;;;13.15;81.33
75627;BME280;67372;49.404;11.034;2023-09-07T03:02:45;98598.13;;;13.13;81.44
75627;BME280;67372;49.404;11.034;2023-09-07T03:05:11;98595.69;;;13.12;81.87
75627;BME280;67372;49.404;11.034;2023-09-07T03:07:38;98599.03;;;13.07;81.97
75627;BME280;67372;49.404;11.034;2023-09-07T03:10:04;98593.53;;;13.02;81.60
75627;BME280;67372;49.404;11.034;2023-09-07T03:12:31;98591.25;;;12.99;81.46
75627;BME280;67372;49.404;11.034;2023-09-07T03:14:57;98590.28;;;12.94;82.08
75627;BME280;67372;49.404;11.034;2023-09-07T03:17:24;98594.47;;;12.89;81.75
75627;BME280;67372;49.404;11.034;2023-09-07T03:19:50;98587.09;;;12.85;82.47
75627;BME280;67372;49.404;11.034;2023-09-07T03:22:17;98582.41;;;12.80;82.58
75627;BME280;67372;49.404;11.034;2023-09-07T03:24:43;98586.56;;;12.76;82.36
75627;BME280;67372;49.404;11.034;2023-09-07T03:27:10;98576.06;;;12.75;82.57
75627;BME280;67372;49.404;11.034;2023-09-07T03:29:36;98586.78;;;12.75;82.10
75627;BME280;67372;49.404;11.034;2023-09-07T03:32:03;98587.81;;;12.74;82.79
75627;BME280;67372;49.404;11.034;2023-09-07T03:34:29;98588.25;;;12.71;82.59
75627;BME280;67372;49.404;11.034;2023-09-07T03:36:56;98580.44;;;12.69;81.88
75627;BME280;67372;49.404;11.034;2023-09-07T03:39:22;98576.72;;;12.70;82.00
75627;BME280;67372;49.404;11.034;2023-09-07T03:41:49;98581.50;;;12.68;82.42
75627;BME280;67372;49.404;11.034;2023-09-07T03:44:15;98592.84;;;12.64;82.67
75627;BME280;67372;49.404;11.034;2023-09-07T03:46:42;98593.09;;;12.62;82.70
75627;BME280;67372;49.404;11.034;2023-09-07T03:49:08;98593.91;;;12.63;82.34
75627;BME280;67372;49.404;11.034;2023-09-07T03:51:34;98593.91;;;12.63;82.56
75627;BME280;67372;49.404;11.034;2023-09-07T03:54:01;98597.63;;;12.62;82.43
75627;BME280;67372;49.404;11.034;2023-09-07T03:56:27;98597.84;;;12.60;82.47
75627;BME280;67372;49.404;11.034;2023-09-07T03:58:54;98596.66;;;12.56;82.79
75627;BME280;67372;49.404;11.034;2023-09-07T04:01:20;98596.22;;;12.52;82.26
75627;BME280;67372;49.404;11.034;2023-09-07T04:03:46;98603.66;;;12.50;82.64
75627;BME280;67372;49.404;11.034;2023-09-07T04:06:13;98595.47;;;12.45;83.01
75627;BME280;67372;49.404;11.034;2023-09-07T04:08:40;98588.50;;;12.44;82.54
75627;BME280;67372;49.404;11.034;2023-09-07T04:11:06;98588.72;;;12.43;82.74
75627;BME280;67372;49.404;11.034;2023-09-07T04:13:32;98588.56;;;12.38;83.17
75627;BME280;67372;49.404;11.034;2023-09-07T04:15:59;98587.34;;;12.34;83.14
75627;BME280;67372;49.404;11.034;2023-09-07T04:18:25;98594.97;;;12.30;83.12
75627;BME280;67372;49.404;11.034;2023-09-07T04:20:52;98591.47;;;12.29;83.03
75627;BME280;67372;49.404;11.034;2023-09-07T04:23:18;98594.97;;;12.30;82.95
75627;BME280;67372;49.404;11.034;2023-09-07T04:25:44;98597.66;;;12.30;82.79
75627;BME280;67372;49.404;11.034;2023-09-07T04:28:11;98603.84;;;12.31;82.96
75627;BME280;67372;49.404;11.034;2023-09-07T04:30:38;98604.84;;;12.29;82.89
75627;BME280;67372;49.404;11.034;2023-09-07T04:33:04;98599.72;;;12.28;82.99
75627;BME280;67372;49.404;11.034;2023-09-07T04:35:32;98600.97;;;12.25;82.73
75627;BME280;67372;49.404;11.034;2023-09-07T04:37:59;98597.69;;;12.23;82.67
75627;BME280;67372;49.404;11.034;2023-09-07T04:40:25;98599.34;;;12.24;82.60
75627;BME280;67372;49.404;11.034;2023-09-07T04:42:52;98598.53;;;12.24;82.93
75627;BME280;67372;49.404;11.034;2023-09-07T04:45:18;98603.28;;;12.22;83.29
75627;BME280;67372;49.404;11.034;2023-09-07T04:47:44;98606.59;;;12.17;83.59
75627;BME280;67372;49.404;11.034;2023-09-07T04:50:11;98613.22;;;12.15;83.69
75627;BME280;67372;49.404;11.034;2023-09-07T04:52:37;98614.03;;;12.15;83.40
75627;BME280;67372;49.404;11.034;2023-09-07T04:55:04;98614.84;;;12.16;83.33
75627;BME280;67372;49.404;11.034;2023-09-07T04:57:31;98613.38;;;12.20;83.15
75627;BME280;67372;49.404;11.034;2023-09-07T04:59:57;98611.91;;;12.24;82.98
75627;BME280;67372;49.404;11.034;2023-09-07T05:02:23;98617.03;;;12.25;82.63
75627;BME280;67372;49.404;11.034;2023-09-07T05:04:50;98617.63;;;12.27;82.80
75627;BME280;67372;49.404;11.034;2023-09-07T05:07:16;98625.25;;;12.31;82.91
75627;BME280;67372;49.404;11.034;2023-09-07T05:09:43;98624.00;;;12.33;82.89
75627;BME280;67372;49.404;11.034;2023-09-07T05:12:09;98618.19;;;12.36;82.82
75627;BME280;67372;49.404;11.034;2023-09-07T05:14:36;98619.41;;;12.40;82.50
75627;BME280;67372;49.404;11.034;2023-09-07T05:17:02;98630.69;;;12.42;82.40
75627;BME280;67372;49.404;11.034;2023-09-07T05:19:29;98623.50;;;12.43;82.43
75627;BME280;67372;49.404;11.034;2023-09-07T05:21:55;98625.13;;;12.44;82.77
75627;BME280;67372;49.404;11.034;2023-09-07T05:24:21;98627.59;;;12.45;82.65
75627;BME280;67372;49.404;11.034;2023-09-07T05:26:48;98625.66;;;12.52;82.43
75627;BME280;67372;49.404;11.034;2023-09-07T05:29:14;98630.78;;;12.60;82.55
75627;BME280;67372;49.404;11.034;2023-09-07T05:31:41;98631.75;;;12.66;83.04
75627;BME280;67372;49.404;11.034;2023-09-07T05:34:08;98633.31;;;12.74;82.54
75627;BME280;67372;49.404;11.034;2023-09-07T05:36:34;98637.00;;;12.79;82.65
75627;BME280;67372;49.404;11.034;2023-09-07T05:39:01;98643.09;;;12.86;83.03
75627;BME280;67372;49.404;11.034;2023-09-07T05:41:27;98639.16;;;12.89;83.25
75627;BME280;67372;49.404;11.034;2023-09-07T05:43:53;98645.50;;;12.95;83.86
75627;BME280;67372;49.404;11.034;2023-09-07T05:46:20;98644.59;;;13.01;83.69
75627;BME280;67372;49.404;11.034;2023-09-07T05:48:46;98643.75;;;13.07;83.80
75627;BME280;67372;49.404;11.034;2023-09-07T05:51:13;98645.31;;;13.14;83.85
75627;BME280;67372;49.404;11.034;2023-09-07T05:53:39;98641.13;;;13.25;83.47
75627;BME280;67372;49.404;11.034;2023-09-07T05:56:06;98633.97;;;13.37;83.37
75627;BME280;67372;49.404;11.034;2023-09-07T05:58:32;98640.22;;;13.49;82.77
75627;BME280;67372;49.404;11.034;2023-09-07T06:00:59;98645.66;;;13.61;82.95
75627;BME280;67372;49.404;11.034;2023-09-07T06:03:26;98640.13;;;13.74;82.18
75627;BME280;67372;49.404;11.034;2023-09-07T06:05:52;98639.34;;;13.86;82.55
75627;BME280;67372;49.404;11.034;2023-09-07T06:08:19;98640.25;;;13.98;82.06
75627;BME280;67372;49.404;11.034;2023-09-07T06:10:45;98642.94;;;14.09;81.87
75627;BME280;67372;49.404;11.034;2023-09-07T06:13:12;98641.97;;;14.22;81.64
75627;BME280;67372;49.404;11.034;2023-09-07T06:15:38;98639.28;;;14.34;81.87
75627;BME280;67372;49.404;11.034;2023-09-07T06:18:04;98644.31;;;14.42;82.06
75627;BME280;67372;49.404;11.034;2023-09-07T06:20:31;98642.28;;;14.56;81.76
75627;BME280;67372;49.404;11.034;2023-09-07T06:22:57;98641.72;;;14.65;82.29
75627;BME280;67372;49.404;11.034;2023-09-07T06:25:24;98637.66;;;14.74;82.30
75627;BME280;67372;49.404;11.034;2023-09-07T06:27:52;98646.75;;;14.85;81.54
75627;BME280;67372;49.404;11.034;2023-09-07T06:30:19;98642.47;;;14.96;81.71
75627;BME280;67372;49.404;11.034;2023-09-07T06:32:45;98643.84;;;15.10;81.38
75627;BME280;67372;49.404;11.034;2023-09-07T06:35:12;98652.50;;;15.24;80.75
75627;BME280;67372;49.404;11.034;2023-09-07T06:37:38;98644.16;;;15.37;80.72
75627;BME280;67372;49.404;11.034;2023-09-07T06:40:05;98651.16;;;15.50;79.97
75627;BME280;67372;49.404;11.034;2023-09-07T06:42:32;98646.38;;;15.63;79.89
75627;BME280;67372;49.404;11.034;2023-09-07T06:44:58;98652.53;;;15.76;79.78
75627;BME280;67372;49.404;11.034;2023-09-07T06:47:24;98644.78;;;15.91;79.13
75627;BME280;67372;49.404;11.034;2023-09-07T06:49:51;98641.78;;;16.04;78.27
75627;BME280;67372;49.404;11.034;2023-09-07T06:52:17;98649.00;;;16.15;77.95
75627;BME280;67372;49.404;11.034;2023-09-07T06:54:44;98645.44;;;16.26;77.78
75627;BME280;67372;49.404;11.034;2023-09-07T06:57:10;98643.19;;;16.35;77.16
75627;BME280;67372;49.404;11.034;2023-09-07T06:59:36;98639.84;;;16.45;77.26
75627;BME280;67372;49.404;11.034;2023-09-07T07:02:03;98644.91;;;16.58;76.57
75627;BME280;67372;49.404;11.034;2023-09-07T07:04:29;98642.16;;;16.70;76.58
75627;BME280;67372;49.404;11.034;2023-09-07T07:06:56;98653.44;;;16.83;76.08
75627;BME280;67372;49.404;11.034;2023-09-07T07:09:22;98646.88;;;16.96;76.05
75627;BME280;67372;49.404;11.034;2023-09-07T07:11:49;98645.50;;;17.10;75.63
75627;BME280;67372;49.404;11.034;2023-09-07T07:14:15;98648.38;;;17.26;75.19
75627;BME280;67372;49.404;11.034;2023-09-07T07:16:42;98648.88;;;17.39;74.73
75627;BME280;67372;49.404;11.034;2023-09-07T07:19:08;98649.31;;;17.53;74.20
75627;BME280;67372;49.404;11.034;2023-09-07T07:21:35;98648.94;;;17.66;73.47
75627;BME280;67372;49.404;11.034;2023-09-07T07:24:01;98642.13;;;17.81;73.04
75627;BME280;67372;49.404;11.034;2023-09-07T07:26:28;98646.88;;;17.95;72.90
75627;BME280;67372;49.404;11.034;2023-09-07T07:28:54;98645.13;;;18.06;72.45
75627;BME280;67372;49.404;11.034;2023-09-07T07:31:20;98643.06;;;18.18;71.43
75627;BME280;67372;49.404;11.034;2023-09-07T07:33:47;98638.09;;;18.32;71.08
75627;BME280;67372;49.404;11.034;2023-09-07T07:36:13;98644.94;;;18.45;70.67
75627;BME280;67372;49.404;11.034;2023-09-07T07:38:40;98645.09;;;18.60;70.62
75627;BME280;67372;49.404;11.034;2023-09-07T07:41:07;98642.00;;;18.73;70.28
75627;BME280;67372;49.404;11.034;2023-09-07T07:43:33;98636.97;;;18.87;69.53
75627;BME280;67372;49.404;11.034;2023-09-07T07:46:00;98632.19;;;18.99;68.83
75627;BME280;67372;49.404;11.034;2023-09-07T07:48:27;98634.69;;;19.11;67.91
75627;BME280;67372;49.404;11.034;2023-09-07T07:50:53;98633.16;;;19.25;67.78
75627;BME280;67372;49.404;11.034;2023-09-07T07:53:19;98628.63;;;19.36;67.73
75627;BME280;67372;49.404;11.034;2023-09-07T07:55:46;98639.25;;;19.47;66.94
75627;BME280;67372;49.404;11.034;2023-09-07T07:58:12;98633.09;;;19.57;66.41
75627;BME280;67372;49.404;11.034;2023-09-07T08:00:39;98625.28;;;19.66;66.36
75627;BME280;67372;49.404;11.034;2023-09-07T08:03:05;98632.09;;;19.73;64.39
75627;BME280;67372;49.404;11.034;2023-09-07T08:05:31;98628.03;;;19.81;64.48
75627;BME280;67372;49.404;11.034;2023-09-07T08:07:58;98632.69;;;19.90;64.46
75627;BME280;67372;49.404;11.034;2023-09-07T08:10:25;98632.72;;;20.01;65.01
75627;BME280;67372;49.404;11.034;2023-09-07T08:12:54;98633.56;;;20.11;64.48
75627;BME280;67372;49.404;11.034;2023-09-07T08:15:21;98632.22;;;20.19;64.21
75627;BME280;67372;49.404;11.034;2023-09-07T08:17:48;98632.75;;;20.31;64.49
75627;BME280;67372;49.404;11.034;2023-09-07T08:20:14;98630.94;;;20.42;64.08
75627;BME280;67372;49.404;11.034;2023-09-07T08:22:41;98636.06;;;20.53;63.12
75627;BME280;67372;49.404;11.034;2023-09-07T08:25:10;98633.94;;;20.66;63.43
75627;BME280;67372;49.404;11.034;2023-09-07T08:27:36;98631.75;;;20.78;62.63
75627;BME280;67372;49.404;11.034;2023-09-07T08:30:03;98623.06;;;20.91;62.84
75627;BME280;67372;49.404;11.034;2023-09-07T08:32:29;98627.09;;;21.04;62.29
75627;BME280;67372;49.404;11.034;2023-09-07T08:34:56;98623.31;;;21.15;61.96
75627;BME280;67372;49.404;11.034;2023-09-07T08:37:23;98629.53;;;21.26;61.95
75627;BME280;67372;49.404;11.034;2023-09-07T08:39:50;98626.53;;;21.37;61.42
75627;BME280;67372;49.404;11.034;2023-09-07T08:42:17;98630.03;;;21.48;60.45
75627;BME280;67372;49.404;11.034;2023-09-07T08:44:45;98620.75;;;21.59;60.01
75627;BME280;67372;49.404;11.034;2023-09-07T08:47:13;98625.06;;;21.70;59.33
75627;BME280;67372;49.404;11.034;2023-09-07T08:49:41;98617.69;;;21.81;58.97
75627;BME280;67372;49.404;11.034;2023-09-07T08:52:09;98620.06;;;21.93;59.24
75627;BME280;67372;49.404;11.034;2023-09-07T08:54:37;98617.06;;;22.04;58.27
75627;BME280;67372;49.404;11.034;2023-09-07T08:57:04;98618.59;;;22.16;57.82
75627;BME280;67372;49.404;11.034;2023-09-07T08:59:31;98618.56;;;22.26;55.02
75627;BME280;67372;49.404;11.034;2023-09-07T09:01:57;98618.72;;;22.40;52.96
75627;BME280;67372;49.404;11.034;2023-09-07T09:04:26;98619.19;;;22.52;50.75
75627;BME280;67372;49.404;11.034;2023-09-07T09:06:52;98614.16;;;22.64;53.11
75627;BME280;67372;49.404;11.034;2023-09-07T09:09:23;98620.88;;;22.77;51.52
75627;BME280;67372;49.404;11.034;2023-09-07T09:11:49;98611.84;;;22.86;52.23
75627;BME280;67372;49.404;11.034;2023-09-07T09:14:17;98613.13;;;22.94;51.47
75627;BME280;67372;49.404;11.034;2023-09-07T09:16:50;98609.28;;;23.00;48.46
75627;BME280;67372;49.404;11.034;2023-09-07T09:19:17;98603.72;;;23.10;50.61
75627;BME280;67372;49.404;11.034;2023-09-07T09:21:44;98610.16;;;23.19;49.62
75627;BME280;67372;49.404;11.034;2023-09-07T09:24:11;98609.53;;;23.27;47.63
75627;BME280;67372;49.404;11.034;2023-09-07T09:26:38;98614.09;;;23.32;47.63
75627;BME280;67372;49.404;11.034;2023-09-07T09:29:04;98612.09;;;23.43;47.35
75627;BME280;67372;49.404;11.034;2023-09-07T09:31:31;98601.66;;;23.50;46.29
75627;BME280;67372;49.404;11.034;2023-09-07T09:33:58;98601.59;;;23.55;47.15
75627;BME280;67372;49.404;11.034;2023-09-07T09:36:32;98598.22;;;23.63;46.12
75627;BME280;67372;49.404;11.034;2023-09-07T09:38:59;98601.13;;;23.72;45.95
75627;BME280;67372;49.404;11.034;2023-09-07T09:41:26;98603.13;;;23.85;46.24
75627;BME280;67372;49.404;11.034;2023-09-07T09:43:55;98597.84;;;23.94;45.17
75627;BME280;67372;49.404;11.034;2023-09-07T09:46:24;98597.19;;;24.02;44.17
75627;BME280;67372;49.404;11.034;2023-09-07T09:48:51;98600.06;;;24.10;43.44
75627;BME280;67372;49.404;11.034;2023-09-07T09:51:18;98595.88;;;24.18;43.98
75627;BME280;67372;49.404;11.034;2023-09-07T09:53:45;98595.19;;;24.26;42.56
75627;BME280;67372;49.404;11.034;2023-09-07T09:56:11;98592.13;;;24.33;42.13
75627;BME280;67372;49.404;11.034;2023-09-07T09:58:38;98600.97;;;24.43;43.20
75627;BME280;67372;49.404;11.034;2023-09-07T10:01:05;98594.00;;;24.51;42.53
75627;BME280;67372;49.404;11.034;2023-09-07T10:03:34;98593.72;;;24.53;40.98
75627;BME280;67372;49.404;11.034;2023-09-07T10:06:08;98583.59;;;24.53;40.87
75627;BME280;67372;49.404;11.034;2023-09-07T10:08:35;98584.63;;;24.57;41.66
75627;BME280;67372;49.404;11.034;2023-09-07T10:11:07;98583.22;;;24.60;39.25
75627;BME280;67372;49.404;11.034;2023-09-07T10:13:34;98578.81;;;24.64;40.89
75627;BME280;67372;49.404;11.034;2023-09-07T10:16:05;98578.41;;;24.70;40.99
75627;BME280;67372;49.404;11.034;2023-09-07T10:18:33;98580.44;;;24.78;40.35
75627;BME280;67372;49.404;11.034;2023-09-07T10:21:00;98573.50;;;24.86;38.67
75627;BME280;67372;49.404;11.034;2023-09-07T10:23:36;98567.94;;;24.91;37.93
75627;BME280;67372;49.404;11.034;2023-09-07T10:26:04;98570.00;;;24.99;38.64
75627;BME280;67372;49.404;11.034;2023-09-07T10:28:32;98567.09;;;25.09;40.46
75627;BME280;67372;49.404;11.034;2023-09-07T10:31:01;98560.31;;;25.21;38.14
75627;BME280;67372;49.404;11.034;2023-09-07T10:33:29;98559.84;;;25.32;38.98
75627;BME280;67372;49.404;11.034;2023-09-07T10:35:57;98556.69;;;25.39;37.67
75627;BME280;67372;49.404;11.034;2023-09-07T10:38:23;98556.28;;;25.46;37.88
75627;BME280;67372;49.404;11.034;2023-09-07T10:40:55;98550.88;;;25.54;36.96
75627;BME280;67372;49.404;11.034;2023-09-07T10:43:21;98551.81;;;25.63;35.75
75627;BME280;67372;49.404;11.034;2023-09-07T10:45:48;98556.75;;;25.75;36.26
75627;BME280;67372;49.404;11.034;2023-09-07T10:48:17;98557.97;;;25.83;36.75
75627;BME280;67372;49.404;11.034;2023-09-07T10:50:44;98545.81;;;25.89;36.95
75627;BME280;67372;49.404;11.034;2023-09-07T10:53:12;98542.31;;;25.97;37.10
75627;BME280;67372;49.404;11.034;2023-09-07T10:55:40;98534.31;;;26.00;36.91
75627;BME280;67372;49.404;11.034;2023-09-07T10:58:07;98538.56;;;26.07;37.27
75627;BME280;67372;49.404;11.034;2023-09-07T11:00:33;98538.31;;;26.17;38.21
75627;BME280;67372;49.404;11.034;2023-09-07T11:03:06;98535.34;;;26.27;36.68
75627;BME280;67372;49.404;11.034;2023-09-07T11:05:35;98531.50;;;26.28;38.36
75627;BME280;67372;49.404;11.034;2023-09-07T11:08:04;98530.88;;;26.31;39.48
75627;BME280;67372;49.404;11.034;2023-09-07T11:10:34;98537.63;;;26.34;39.92
75627;BME280;67372;49.404;11.034;2023-09-07T11:13:05;98535.44;;;26.36;40.57
75627;BME280;67372;49.404;11.034;2023-09-07T11:15:32;98530.13;;;26.39;40.85
75627;BME280;67372;49.404;11.034;2023-09-07T11:18:04;98529.38;;;26.47;41.55
75627;BME280;67372;49.404;11.034;2023-09-07T11:20:31;98529.19;;;26.44;39.83
75627;BME280;67372;49.404;11.034;2023-09-07T11:22:58;98522.91;;;26.43;40.63
75627;BME280;67372;49.404;11.034;2023-09-07T11:25:34;98529.38;;;26.47;40.34
75627;BME280;67372;49.404;11.034;2023-09-07T11:28:05;98522.84;;;26.57;41.41
75627;BME280;67372;49.404;11.034;2023-09-07T11:30:32;98525.31;;;26.67;41.54
75627;BME280;67372;49.404;11.034;2023-09-07T11:33:07;98527.00;;;26.77;39.95
75627;BME280;67372;49.404;11.034;2023-09-07T11:35:34;98525.41;;;26.84;39.94
75627;BME280;67372;49.404;11.034;2023-09-07T11:38:02;98525.72;;;26.83;40.38
75627;BME280;67372;49.404;11.034;2023-09-07T11:40:30;98524.56;;;26.75;38.56
75627;BME280;67372;49.404;11.034;2023-09-07T11:42:57;98527.31;;;26.75;38.05
75627;BME280;67372;49.404;11.034;2023-09-07T11:45:24;98522.97;;;26.74;38.84
75627;BME280;67372;49.404;11.034;2023-09-07T11:47:50;98516.53;;;26.79;38.78
75627;BME280;67372;49.404;11.034;2023-09-07T11:50:17;98518.19;;;26.88;39.90
75627;BME280;67372;49.404;11.034;2023-09-07T11:52:44;98513.38;;;26.94;39.42
75627;BME280;67372;49.404;11.034;2023-09-07T11:55:13;98519.41;;;27.05;39.59
75627;BME280;67372;49.404;11.034;2023-09-07T11:57:40;98521.69;;;27.11;39.32
75627;BME280;67372;49.404;11.034;2023-09-07T12:00:07;98520.56;;;27.12;39.30
75627;BME280;67372;49.404;11.034;2023-09-07T12:02:34;98513.81;;;27.18;39.64
75627;BME280;67372;49.404;11.034;2023-09-07T12:05:00;98516.59;;;27.27;39.80
75627;BME280;67372;49.404;11.034;2023-09-07T12:07:27;98515.63;;;27.32;39.19
75627;BME280;67372;49.404;11.034;2023-09-07T12:09:53;98510.63;;;27.34;38.53
75627;BME280;67372;49.404;11.034;2023-09-07T12:12:20;98512.91;;;27.40;39.46
75627;BME280;67372;49.404;11.034;2023-09-07T12:14:46;98503.44;;;27.46;38.94
75627;BME280;67372;49.404;11.034;2023-09-07T12:17:13;98503.59;;;27.50;37.45
75627;BME280;67372;49.404;11.034;2023-09-07T12:19:39;98498.09;;;27.50;35.88
75627;BME280;67372;49.404;11.034;2023-09-07T12:22:06;98499.06;;;27.54;36.63
75627;BME280;67372;49.404;11.034;2023-09-07T12:24:32;98502.94;;;27.62;37.46
75627;BME280;67372;49.404;11.034;2023-09-07T12:26:58;98497.97;;;27.64;37.79
75627;BME280;67372;49.404;11.034;2023-09-07T12:29:25;98499.59;;;27.65;36.19
75627;BME280;67372;49.404;11.034;2023-09-07T12:31:52;98497.19;;;27.72;35.89
75627;BME280;67372;49.404;11.034;2023-09-07T12:34:18;98488.97;;;27.80;35.32
75627;BME280;67372;49.404;11.034;2023-09-07T12:36:45;98485.25;;;27.85;35.15
75627;BME280;67372;49.404;11.034;2023-09-07T12:39:11;98491.22;;;27.87;34.82
75627;BME280;67372;49.404;11.034;2023-09-07T12:41:38;98480.41;;;27.91;35.25
75627;BME280;67372;49.404;11.034;2023-09-07T12:44:05;98481.72;;;27.93;34.53
75627;BME280;67372;49.404;11.034;2023-09-07T12:46:32;98486.56;;;27.96;35.08
75627;BME280;67372;49.404;11.034;2023-09-07T12:48:58;98480.75;;;27.98;34.66